createdAt,value
2023-05-31T00:00:01.039Z,34.35
2023-05-31T00:01:01.263Z,34.34
2023-05-31T00:02:01.133Z,34.37
2023-05-31T00:03:01.283Z,34.34
2023-05-31T00:04:01.298Z,34.36
2023-05-31T00:05:01.284Z,34.36
2023-05-31T00:06:01.378Z,34.36
2023-05-31T00:07:01.366Z,34.36
2023-05-31T00:08:01.396Z,34.36
2023-05-31T00:09:01.454Z,34.38
2023-05-31T00:10:01.513Z,34.38
2023-05-31T00:11:01.855Z,34.37
2023-05-31T00:12:01.635Z,34.36
2023-05-31T00:13:01.719Z,34.40
2023-05-31T00:14:01.737Z,34.38
2023-05-31T00:15:01.879Z,34.39
2023-05-31T00:16:01.888Z,34.39
2023-05-31T00:17:20.566Z,34.39
2023-05-31T00:18:02.945Z,34.41
2023-05-31T00:19:01.977Z,34.41
2023-05-31T00:20:01.927Z,34.40
2023-05-31T00:21:02.071Z,34.41
2023-05-31T00:22:01.951Z,34.41
2023-05-31T00:23:01.914Z,34.40
2023-05-31T00:24:01.904Z,34.41
2023-05-31T00:25:01.878Z,34.41
2023-05-31T00:26:01.852Z,34.41
2023-05-31T00:27:01.941Z,34.43
2023-05-31T00:28:02.084Z,34.42
2023-05-31T00:29:02.047Z,34.43
2023-05-31T00:30:02.106Z,34.44
2023-05-31T00:31:02.307Z,34.44
2023-05-31T00:32:02.226Z,34.43
2023-05-31T00:33:02.394Z,34.43
2023-05-31T00:34:02.404Z,34.42
2023-05-31T00:35:02.467Z,34.45
2023-05-31T00:36:02.451Z,34.43
2023-05-31T00:37:02.529Z,34.46
2023-05-31T00:38:02.695Z,34.46
2023-05-31T00:39:02.638Z,34.45
2023-05-31T00:40:02.729Z,34.43
2023-05-31T00:41:02.754Z,34.46
2023-05-31T00:42:02.799Z,34.45
2023-05-31T00:43:02.862Z,34.45
2023-05-31T00:44:02.917Z,34.47
2023-05-31T00:45:03.019Z,34.45
2023-05-31T00:46:03.098Z,34.48
2023-05-31T00:47:03.111Z,34.47
2023-05-31T00:48:03.224Z,34.47
2023-05-31T00:49:03.246Z,34.46
2023-05-31T00:50:03.264Z,34.46
2023-05-31T00:51:03.460Z,34.48
2023-05-31T00:52:03.452Z,34.47
2023-05-31T00:53:03.455Z,34.46
2023-05-31T00:54:03.567Z,34.48
2023-05-31T00:55:03.619Z,34.46
2023-05-31T00:56:03.668Z,34.49
2023-05-31T00:57:03.728Z,34.50
2023-05-31T00:58:03.795Z,34.50
2023-05-31T00:59:03.828Z,34.48
2023-05-31T01:00:03.872Z,34.51
2023-05-31T01:01:04.036Z,34.50
2023-05-31T01:02:04.057Z,34.51
2023-05-31T01:03:04.236Z,34.51
2023-05-31T01:04:04.470Z,34.52
2023-05-31T01:05:04.201Z,34.54
2023-05-31T01:06:04.230Z,34.54
2023-05-31T01:07:04.307Z,34.50
2023-05-31T01:08:04.371Z,34.55
2023-05-31T01:09:04.422Z,34.52
2023-05-31T01:10:04.480Z,34.55
2023-05-31T01:11:04.536Z,34.55
2023-05-31T01:12:04.595Z,34.54
2023-05-31T01:13:04.601Z,34.53
2023-05-31T01:14:04.666Z,34.53
2023-05-31T01:15:04.732Z,34.53
2023-05-31T01:16:04.818Z,34.53
2023-05-31T01:17:04.836Z,34.54
2023-05-31T01:18:04.985Z,34.55
2023-05-31T01:19:04.961Z,34.55
2023-05-31T01:20:05.320Z,34.57
2023-05-31T01:21:05.119Z,34.57
2023-05-31T01:22:05.129Z,34.57
2023-05-31T01:23:05.196Z,34.55
2023-05-31T01:24:05.221Z,34.57
2023-05-31T01:25:05.306Z,34.59
2023-05-31T01:26:05.380Z,34.57
2023-05-31T01:27:05.421Z,34.57
2023-05-31T01:28:05.450Z,34.59
2023-05-31T01:29:05.586Z,34.59
2023-05-31T01:30:05.612Z,34.58
2023-05-31T01:31:05.656Z,34.60
2023-05-31T01:32:05.760Z,34.58
2023-05-31T01:33:05.811Z,34.59
2023-05-31T01:34:05.915Z,34.60
2023-05-31T01:35:05.928Z,34.59
2023-05-31T01:36:05.943Z,34.59
2023-05-31T01:37:06.029Z,34.60
2023-05-31T01:38:06.107Z,34.61
2023-05-31T01:39:06.168Z,34.60
2023-05-31T01:40:06.239Z,34.60
2023-05-31T01:41:06.230Z,34.60
2023-05-31T01:42:06.370Z,34.61
2023-05-31T01:43:06.399Z,34.61
2023-05-31T01:44:06.419Z,34.61
2023-05-31T01:45:06.516Z,34.62
2023-05-31T01:46:06.597Z,34.59
2023-05-31T01:47:06.617Z,34.63
2023-05-31T01:48:06.740Z,34.60
2023-05-31T01:49:06.699Z,34.60
2023-05-31T01:50:06.818Z,34.61
2023-05-31T01:51:06.763Z,34.63
2023-05-31T01:52:06.819Z,34.62
2023-05-31T01:53:06.904Z,34.62
2023-05-31T01:54:06.939Z,34.64
2023-05-31T01:55:06.953Z,34.64
2023-05-31T01:56:07.004Z,34.62
2023-05-31T01:57:07.168Z,34.67
2023-05-31T01:58:07.113Z,34.65
2023-05-31T01:59:07.183Z,34.63
2023-05-31T02:00:07.239Z,34.62
2023-05-31T02:01:07.338Z,34.64
2023-05-31T02:02:07.375Z,34.63
2023-05-31T02:03:07.520Z,34.65
2023-05-31T02:04:07.465Z,34.64
2023-05-31T02:05:07.527Z,34.65
2023-05-31T02:06:07.598Z,34.67
2023-05-31T02:07:07.642Z,34.67
2023-05-31T02:08:07.736Z,34.65
2023-05-31T02:09:07.768Z,34.67
2023-05-31T02:10:07.787Z,34.67
2023-05-31T02:11:07.880Z,34.67
2023-05-31T02:12:08.003Z,34.67
2023-05-31T02:13:08.004Z,34.69
2023-05-31T02:14:08.050Z,34.65
2023-05-31T02:15:08.108Z,34.67
2023-05-31T02:16:08.189Z,34.66
2023-05-31T02:17:08.256Z,34.70
2023-05-31T02:18:08.296Z,34.69
2023-05-31T02:19:08.282Z,34.68
2023-05-31T02:20:08.317Z,34.68
2023-05-31T02:21:08.405Z,34.66
2023-05-31T02:22:08.419Z,34.70
2023-05-31T02:23:08.461Z,34.67
2023-05-31T02:24:08.523Z,34.68
2023-05-31T02:25:08.567Z,34.68
2023-05-31T02:26:08.588Z,34.70
2023-05-31T02:27:08.663Z,34.68
2023-05-31T02:28:08.681Z,34.70
2023-05-31T02:29:08.772Z,34.71
2023-05-31T02:30:08.784Z,34.67
2023-05-31T02:31:08.879Z,34.68
2023-05-31T02:32:08.893Z,34.68
2023-05-31T02:33:08.884Z,34.70
2023-05-31T02:34:08.965Z,34.70
2023-05-31T02:35:09.020Z,34.69
2023-05-31T02:36:09.048Z,34.73
2023-05-31T02:37:09.138Z,34.71
2023-05-31T02:38:09.132Z,34.69
2023-05-31T02:39:09.143Z,34.73
2023-05-31T02:40:09.224Z,34.71
2023-05-31T02:41:09.179Z,34.71
2023-05-31T02:42:09.211Z,34.72
2023-05-31T02:43:09.223Z,34.71
2023-05-31T02:44:09.230Z,34.71
2023-05-31T02:45:09.265Z,34.75
2023-05-31T02:46:09.360Z,34.73
2023-05-31T02:47:09.289Z,34.71
2023-05-31T02:48:09.321Z,34.73
2023-05-31T02:49:09.315Z,34.74
2023-05-31T02:50:09.374Z,34.74
2023-05-31T02:51:09.326Z,34.77
2023-05-31T02:52:09.308Z,34.76
2023-05-31T02:53:09.400Z,34.71
2023-05-31T02:54:09.382Z,34.71
2023-05-31T02:55:09.356Z,34.72
2023-05-31T02:56:09.433Z,34.74
2023-05-31T02:57:09.473Z,34.74
2023-05-31T02:58:09.476Z,34.75
2023-05-31T02:59:09.475Z,34.75
2023-05-31T03:00:09.565Z,34.75
2023-05-31T03:01:09.505Z,34.74
2023-05-31T03:02:09.683Z,34.77
2023-05-31T03:03:09.670Z,34.76
2023-05-31T03:04:09.589Z,34.76
2023-05-31T03:05:09.604Z,34.75
2023-05-31T03:06:09.626Z,34.75
2023-05-31T03:07:09.613Z,34.71
2023-05-31T03:08:09.609Z,34.76
2023-05-31T03:09:09.663Z,34.76
2023-05-31T03:10:09.673Z,34.75
2023-05-31T03:11:09.733Z,34.76
2023-05-31T03:12:09.743Z,34.77
2023-05-31T03:13:09.785Z,34.76
2023-05-31T03:14:09.800Z,34.76
2023-05-31T03:15:09.859Z,34.76
2023-05-31T03:16:09.903Z,34.77
2023-05-31T03:17:09.872Z,34.77
2023-05-31T03:18:09.891Z,34.78
2023-05-31T03:19:09.929Z,34.76
2023-05-31T03:20:10.339Z,34.78
2023-05-31T03:21:09.942Z,34.75
2023-05-31T03:22:10.031Z,34.77
2023-05-31T03:23:10.043Z,34.75
2023-05-31T03:24:10.045Z,34.76
2023-05-31T03:25:10.029Z,34.76
2023-05-31T03:26:10.041Z,34.78
2023-05-31T03:27:10.048Z,34.78
2023-05-31T03:28:10.101Z,34.76
2023-05-31T03:29:10.116Z,34.74
2023-05-31T03:30:10.174Z,34.77
2023-05-31T03:31:10.112Z,34.75
2023-05-31T03:32:10.139Z,34.76
2023-05-31T03:33:10.203Z,34.79
2023-05-31T03:34:10.209Z,34.75
2023-05-31T03:35:10.208Z,34.76
2023-05-31T03:36:10.260Z,34.77
2023-05-31T03:37:10.216Z,34.76
2023-05-31T03:38:10.239Z,34.76
2023-05-31T03:39:10.233Z,34.76
2023-05-31T03:40:10.297Z,34.76
2023-05-31T03:41:10.249Z,34.74
2023-05-31T03:42:10.265Z,34.72
2023-05-31T03:43:10.263Z,34.72
2023-05-31T03:44:10.275Z,34.73
2023-05-31T03:45:10.275Z,34.72
2023-05-31T03:46:10.362Z,34.66
2023-05-31T03:47:10.285Z,34.63
2023-05-31T03:48:10.375Z,34.61
2023-05-31T03:49:10.358Z,34.57
2023-05-31T03:50:10.416Z,34.61
2023-05-31T03:51:10.459Z,34.59
2023-05-31T03:52:10.538Z,34.58
2023-05-31T03:53:10.571Z,34.58
2023-05-31T03:54:10.645Z,34.57
2023-05-31T03:55:10.695Z,34.57
2023-05-31T03:56:10.765Z,34.54
2023-05-31T03:57:10.804Z,34.44
2023-05-31T03:58:10.877Z,34.39
2023-05-31T03:59:10.922Z,34.34
2023-05-31T04:00:11.008Z,34.36
2023-05-31T04:01:11.107Z,34.36
2023-05-31T04:02:11.247Z,34.37
2023-05-31T04:03:11.247Z,34.34
2023-05-31T04:04:11.435Z,34.25
2023-05-31T04:05:11.365Z,34.19
2023-05-31T04:06:11.356Z,34.15
2023-05-31T04:07:11.394Z,34.10
2023-05-31T04:08:11.459Z,34.06
2023-05-31T04:09:11.513Z,33.99
2023-05-31T04:10:11.536Z,33.95
2023-05-31T04:11:11.582Z,33.87
2023-05-31T04:12:11.715Z,33.81
2023-05-31T04:13:11.698Z,33.57
2023-05-31T04:14:11.701Z,33.18
2023-05-31T04:15:11.738Z,32.82
2023-05-31T04:16:11.862Z,32.43
2023-05-31T04:17:11.809Z,32.17
2023-05-31T04:18:11.885Z,32.08
2023-05-31T04:19:11.874Z,32.21
2023-05-31T04:20:11.932Z,32.37
2023-05-31T04:21:11.842Z,32.48
2023-05-31T04:22:11.893Z,32.60
2023-05-31T04:23:11.914Z,32.64
2023-05-31T04:24:11.981Z,32.62
2023-05-31T04:25:12.016Z,32.33
2023-05-31T04:26:12.042Z,31.87
2023-05-31T04:27:12.046Z,31.45
2023-05-31T04:28:12.108Z,31.06
2023-05-31T04:29:12.114Z,30.75
2023-05-31T04:30:12.161Z,30.54
2023-05-31T04:31:12.149Z,30.32
2023-05-31T04:32:12.223Z,30.12
2023-05-31T04:33:12.220Z,29.95
2023-05-31T04:34:12.249Z,29.74
2023-05-31T04:35:12.252Z,29.66
2023-05-31T04:36:12.249Z,29.54
2023-05-31T04:37:12.267Z,29.42
2023-05-31T04:38:12.320Z,29.27
2023-05-31T04:39:12.379Z,29.10
2023-05-31T04:40:12.435Z,28.93
2023-05-31T04:41:12.504Z,28.85
2023-05-31T04:42:12.560Z,28.74
2023-05-31T04:43:12.524Z,28.58
2023-05-31T04:44:12.509Z,28.49
2023-05-31T04:45:12.458Z,28.40
2023-05-31T04:46:12.572Z,28.28
2023-05-31T04:47:12.540Z,28.19
2023-05-31T04:48:12.554Z,28.13
2023-05-31T04:49:12.625Z,28.02
2023-05-31T04:50:12.666Z,27.89
2023-05-31T04:51:12.764Z,27.80
2023-05-31T04:52:12.734Z,27.66
2023-05-31T04:53:12.789Z,27.56
2023-05-31T04:54:12.856Z,27.33
2023-05-31T04:55:12.950Z,26.88
2023-05-31T04:56:12.907Z,26.72
2023-05-31T04:57:12.957Z,26.80
2023-05-31T04:58:13.028Z,26.87
2023-05-31T04:59:13.147Z,27.07
2023-05-31T05:00:13.087Z,27.49
2023-05-31T05:01:13.113Z,28.28
2023-05-31T05:02:13.094Z,29.00
2023-05-31T05:03:13.191Z,29.54
2023-05-31T05:04:13.161Z,29.94
2023-05-31T05:05:13.126Z,30.33
2023-05-31T05:06:13.180Z,30.52
2023-05-31T05:07:13.226Z,30.74
2023-05-31T05:08:13.302Z,30.97
2023-05-31T05:09:13.355Z,31.09
2023-05-31T05:10:13.368Z,31.32
2023-05-31T05:11:13.372Z,31.54
2023-05-31T05:12:13.364Z,31.74
2023-05-31T05:13:13.368Z,31.85
2023-05-31T05:14:13.381Z,31.94
2023-05-31T05:15:13.381Z,32.00
2023-05-31T05:16:13.392Z,32.16
2023-05-31T05:17:13.453Z,32.27
2023-05-31T05:18:13.470Z,32.51
2023-05-31T05:19:13.420Z,32.66
2023-05-31T05:20:13.574Z,32.76
2023-05-31T05:21:13.525Z,32.75
2023-05-31T05:22:13.597Z,32.73
2023-05-31T05:23:13.644Z,32.77
2023-05-31T05:24:13.670Z,32.80
2023-05-31T05:25:13.718Z,32.80
2023-05-31T05:26:13.767Z,32.79
2023-05-31T05:27:13.792Z,32.90
2023-05-31T05:28:13.800Z,32.90
2023-05-31T05:29:13.844Z,32.29
2023-05-31T05:30:13.931Z,32.34
2023-05-31T05:31:13.994Z,32.51
2023-05-31T05:32:13.969Z,32.73
2023-05-31T05:33:13.972Z,32.72
2023-05-31T05:34:14.028Z,32.97
2023-05-31T05:35:14.088Z,33.14
2023-05-31T05:36:14.097Z,32.99
2023-05-31T05:37:14.154Z,32.64
2023-05-31T05:38:14.213Z,32.88
2023-05-31T05:39:14.289Z,33.01
2023-05-31T05:40:14.302Z,33.00
2023-05-31T05:41:14.352Z,33.18
2023-05-31T05:42:14.384Z,33.38
2023-05-31T05:43:14.563Z,33.31
2023-05-31T05:44:14.518Z,33.51
2023-05-31T05:45:14.578Z,33.14
2023-05-31T05:46:14.747Z,33.44
2023-05-31T05:47:14.626Z,33.57
2023-05-31T05:48:14.724Z,33.72
2023-05-31T05:49:14.982Z,33.85
2023-05-31T05:50:14.822Z,33.91
2023-05-31T05:51:14.883Z,33.88
2023-05-31T05:52:15.096Z,33.85
2023-05-31T05:53:14.880Z,33.83
2023-05-31T05:54:14.864Z,33.86
2023-05-31T05:55:14.948Z,33.76
2023-05-31T05:56:15.025Z,33.72
2023-05-31T05:57:14.962Z,33.61
2023-05-31T05:58:15.030Z,33.69
2023-05-31T05:59:15.028Z,33.63
2023-05-31T06:00:15.024Z,33.55
2023-05-31T06:01:15.033Z,33.54
2023-05-31T06:02:15.559Z,33.49
2023-05-31T06:03:15.218Z,33.61
2023-05-31T06:04:15.168Z,33.47
2023-05-31T06:05:15.120Z,33.46
2023-05-31T06:06:15.221Z,33.47
2023-05-31T06:07:15.538Z,33.41
2023-05-31T06:08:15.203Z,33.28
2023-05-31T06:09:15.181Z,33.41
2023-05-31T06:10:15.200Z,33.42
2023-05-31T06:11:15.263Z,33.40
2023-05-31T06:12:15.221Z,33.46
2023-05-31T06:13:15.206Z,33.33
2023-05-31T06:14:15.295Z,33.34
2023-05-31T06:15:15.247Z,33.30
2023-05-31T06:16:15.347Z,33.34
2023-05-31T06:17:15.340Z,33.21
2023-05-31T06:18:15.330Z,33.19
2023-05-31T06:19:15.350Z,33.30
2023-05-31T06:20:15.442Z,33.25
2023-05-31T06:21:15.375Z,33.31
2023-05-31T06:22:15.378Z,33.18
2023-05-31T06:23:15.321Z,33.11
2023-05-31T06:24:15.354Z,33.13
2023-05-31T06:25:15.381Z,33.22
2023-05-31T06:26:15.376Z,33.26
2023-05-31T06:27:15.407Z,33.14
2023-05-31T06:28:15.414Z,33.22
2023-05-31T06:29:15.431Z,33.24
2023-05-31T06:30:15.420Z,33.26
2023-05-31T06:31:15.424Z,33.35
2023-05-31T06:32:15.468Z,33.33
2023-05-31T06:33:15.509Z,33.24
2023-05-31T06:34:15.465Z,33.18
2023-05-31T06:35:15.483Z,33.17
2023-05-31T06:36:15.476Z,33.30
2023-05-31T06:37:15.488Z,33.34
2023-05-31T06:38:15.489Z,33.36
2023-05-31T06:39:15.572Z,33.20
2023-05-31T06:40:15.572Z,33.25
2023-05-31T06:41:15.584Z,33.38
2023-05-31T06:42:15.581Z,33.88
2023-05-31T06:43:15.630Z,33.90
2023-05-31T06:44:15.659Z,34.10
2023-05-31T06:45:15.731Z,34.15
2023-05-31T06:46:15.713Z,34.20
2023-05-31T06:47:15.721Z,34.19
2023-05-31T06:48:15.676Z,34.14
2023-05-31T06:49:15.735Z,34.10
2023-05-31T06:50:15.747Z,34.02
2023-05-31T06:51:15.740Z,34.00
2023-05-31T06:52:15.707Z,33.86
2023-05-31T06:53:15.766Z,33.61
2023-05-31T06:54:15.743Z,33.66
2023-05-31T06:55:15.726Z,33.61
2023-05-31T06:56:15.779Z,33.61
2023-05-31T06:57:15.718Z,33.48
2023-05-31T06:58:15.791Z,33.34
2023-05-31T06:59:15.735Z,32.99
2023-05-31T07:00:15.793Z,33.28
2023-05-31T07:01:15.756Z,33.40
2023-05-31T07:02:15.755Z,33.58
2023-05-31T07:03:15.919Z,33.50
2023-05-31T07:04:15.785Z,33.49
2023-05-31T07:05:15.773Z,33.54
2023-05-31T07:06:15.800Z,33.67
2023-05-31T07:07:15.793Z,33.72
2023-05-31T07:08:15.823Z,33.61
2023-05-31T07:09:15.792Z,33.60
2023-05-31T07:10:15.811Z,33.60
2023-05-31T07:11:15.840Z,33.62
2023-05-31T07:12:15.807Z,33.77
2023-05-31T07:13:15.848Z,33.87
2023-05-31T07:14:15.902Z,33.73
2023-05-31T07:15:15.844Z,33.84
2023-05-31T07:16:16.043Z,33.97
2023-05-31T07:17:15.964Z,33.71
2023-05-31T07:18:15.964Z,33.47
2023-05-31T07:19:15.931Z,33.41
2023-05-31T07:20:16.046Z,33.47
2023-05-31T07:21:15.981Z,33.48
2023-05-31T07:22:15.995Z,33.50
2023-05-31T07:23:16.075Z,33.52
2023-05-31T07:24:16.112Z,33.58
2023-05-31T07:25:16.200Z,33.63
2023-05-31T07:26:16.235Z,33.61
2023-05-31T07:27:16.222Z,33.50
2023-05-31T07:28:16.310Z,33.53
2023-05-31T07:29:16.345Z,33.44
2023-05-31T07:30:16.448Z,33.48
2023-05-31T07:31:16.621Z,33.53
2023-05-31T07:32:16.534Z,33.53
2023-05-31T07:33:21.936Z,33.48
2023-05-31T07:34:17.546Z,33.60
2023-05-31T07:35:16.606Z,33.58
2023-05-31T07:36:16.542Z,33.59
2023-05-31T07:37:16.546Z,33.63
2023-05-31T07:38:16.575Z,33.63
2023-05-31T07:39:16.598Z,33.62
2023-05-31T07:40:16.545Z,32.99
2023-05-31T07:41:16.538Z,33.16
2023-05-31T07:42:16.522Z,33.52
2023-05-31T07:43:16.487Z,33.49
2023-05-31T07:44:16.476Z,33.70
2023-05-31T07:45:16.481Z,33.73
2023-05-31T07:46:16.526Z,33.81
2023-05-31T07:47:16.471Z,33.78
2023-05-31T07:48:16.510Z,33.80
2023-05-31T07:49:16.508Z,33.89
2023-05-31T07:50:16.476Z,33.87
2023-05-31T07:51:16.461Z,33.87
2023-05-31T07:52:16.492Z,33.85
2023-05-31T07:53:16.491Z,33.49
2023-05-31T07:54:16.466Z,33.45
2023-05-31T07:55:16.461Z,33.69
2023-05-31T07:56:16.484Z,33.40
2023-05-31T07:57:16.480Z,33.52
2023-05-31T07:58:16.524Z,33.70
2023-05-31T07:59:16.509Z,33.70
2023-05-31T08:00:16.684Z,33.56
2023-05-31T08:01:16.584Z,33.49
2023-05-31T08:02:16.654Z,33.35
2023-05-31T08:03:16.685Z,33.39
2023-05-31T08:04:16.637Z,33.35
2023-05-31T08:05:16.620Z,33.68
2023-05-31T08:06:16.600Z,33.40
2023-05-31T08:07:16.594Z,33.30
2023-05-31T08:08:16.610Z,33.29
2023-05-31T08:09:16.598Z,33.21
2023-05-31T08:10:16.756Z,33.08
2023-05-31T08:11:16.638Z,32.84
2023-05-31T08:12:16.931Z,33.47
2023-05-31T08:13:16.651Z,33.52
2023-05-31T08:14:16.635Z,33.83
2023-05-31T08:15:16.643Z,33.59
2023-05-31T08:16:16.659Z,33.54
2023-05-31T08:17:16.861Z,33.41
2023-05-31T08:18:16.720Z,33.14
2023-05-31T08:19:16.732Z,33.42
2023-05-31T08:20:16.749Z,33.41
2023-05-31T08:21:16.720Z,33.38
2023-05-31T08:22:16.740Z,33.51
2023-05-31T08:23:16.728Z,33.63
2023-05-31T08:24:16.724Z,33.23
2023-05-31T08:25:16.743Z,33.15
2023-05-31T08:26:16.788Z,33.10
2023-05-31T08:27:16.763Z,33.42
2023-05-31T08:28:16.749Z,33.25
2023-05-31T08:29:16.789Z,33.36
2023-05-31T08:30:16.843Z,33.59
2023-05-31T08:31:16.963Z,34.11
2023-05-31T08:32:16.915Z,34.07
2023-05-31T08:33:17.085Z,34.12
2023-05-31T08:34:17.030Z,34.04
2023-05-31T08:35:17.049Z,34.03
2023-05-31T08:36:17.123Z,34.00
2023-05-31T08:37:17.168Z,33.86
2023-05-31T08:38:17.247Z,33.72
2023-05-31T08:39:17.317Z,33.63
2023-05-31T08:40:17.368Z,33.48
2023-05-31T08:41:17.463Z,33.33
2023-05-31T08:42:17.446Z,33.51
2023-05-31T08:43:17.685Z,33.57
2023-05-31T08:44:17.514Z,33.73
2023-05-31T08:45:17.635Z,33.63
2023-05-31T08:46:17.654Z,33.67
2023-05-31T08:47:17.755Z,33.91
2023-05-31T08:48:17.724Z,34.03
2023-05-31T08:49:17.764Z,34.00
2023-05-31T08:50:17.759Z,34.07
2023-05-31T08:51:17.776Z,34.05
2023-05-31T08:52:17.831Z,34.05
2023-05-31T08:53:17.781Z,34.05
2023-05-31T08:54:17.828Z,34.10
2023-05-31T08:55:17.796Z,34.08
2023-05-31T08:56:17.849Z,34.18
2023-05-31T08:57:17.863Z,34.10
2023-05-31T08:58:17.870Z,34.14
2023-05-31T08:59:17.903Z,34.15
2023-05-31T09:00:18.016Z,34.16
2023-05-31T09:01:18.129Z,34.10
2023-05-31T09:02:18.085Z,34.09
2023-05-31T09:03:18.139Z,34.09
2023-05-31T09:04:18.202Z,34.02
2023-05-31T09:05:18.306Z,33.98
2023-05-31T09:06:18.413Z,33.99
2023-05-31T09:07:18.381Z,33.96
2023-05-31T09:08:18.442Z,33.97
2023-05-31T09:09:18.444Z,33.93
2023-05-31T09:10:18.463Z,33.91
2023-05-31T09:11:18.549Z,33.95
2023-05-31T09:12:18.530Z,33.96
2023-05-31T09:13:18.582Z,34.04
2023-05-31T09:14:18.607Z,34.01
2023-05-31T09:15:18.659Z,33.97
2023-05-31T09:16:18.725Z,33.93
2023-05-31T09:17:18.708Z,34.03
2023-05-31T09:18:18.677Z,33.98
2023-05-31T09:19:18.738Z,34.02
2023-05-31T09:20:18.817Z,34.04
2023-05-31T09:21:18.771Z,33.87
2023-05-31T09:22:18.781Z,33.91
2023-05-31T09:23:18.829Z,33.82
2023-05-31T09:24:18.825Z,33.86
2023-05-31T09:25:18.823Z,33.80
2023-05-31T09:26:18.841Z,33.78
2023-05-31T09:27:18.810Z,33.85
2023-05-31T09:28:18.822Z,33.85
2023-05-31T09:29:18.972Z,33.78
2023-05-31T09:30:18.934Z,33.92
2023-05-31T09:31:19.280Z,32.97
2023-05-31T09:32:18.876Z,33.14
2023-05-31T09:33:18.855Z,33.43
2023-05-31T09:34:18.895Z,32.70
2023-05-31T09:35:18.963Z,32.89
2023-05-31T09:36:18.979Z,32.19
2023-05-31T09:37:19.001Z,32.57
2023-05-31T09:38:19.562Z,32.87
2023-05-31T09:39:19.080Z,33.01
2023-05-31T09:40:19.173Z,33.08
2023-05-31T09:41:19.169Z,33.19
2023-05-31T09:42:19.191Z,33.21
2023-05-31T09:43:19.219Z,33.25
2023-05-31T09:44:19.218Z,33.25
2023-05-31T09:45:19.266Z,33.27
2023-05-31T09:46:19.361Z,33.34
2023-05-31T09:47:19.313Z,33.36
2023-05-31T09:48:19.362Z,33.67
2023-05-31T09:49:19.359Z,33.56
2023-05-31T09:50:19.404Z,33.45
2023-05-31T09:51:19.434Z,33.51
2023-05-31T09:52:19.340Z,33.50
2023-05-31T09:53:19.445Z,33.52
2023-05-31T09:54:19.378Z,33.59
2023-05-31T09:55:19.329Z,33.56
2023-05-31T09:56:19.345Z,33.30
2023-05-31T09:57:19.404Z,33.38
2023-05-31T09:58:19.357Z,33.44
2023-05-31T09:59:19.408Z,33.56
2023-05-31T10:00:19.442Z,33.55
2023-05-31T10:01:19.495Z,33.58
2023-05-31T10:02:19.514Z,33.06
2023-05-31T10:03:19.493Z,32.45
2023-05-31T10:04:19.535Z,32.76
2023-05-31T10:05:19.546Z,32.93
2023-05-31T10:06:19.509Z,32.95
2023-05-31T10:07:19.542Z,32.90
2023-05-31T10:08:19.555Z,32.95
2023-05-31T10:09:19.562Z,32.95
2023-05-31T10:10:19.570Z,32.99
2023-05-31T10:11:19.637Z,33.01
2023-05-31T10:12:19.618Z,33.02
2023-05-31T10:13:19.707Z,33.23
2023-05-31T10:14:19.719Z,32.94
2023-05-31T10:15:19.756Z,32.93
2023-05-31T10:16:19.983Z,32.92
2023-05-31T10:17:19.819Z,32.78
2023-05-31T10:18:19.941Z,32.67
2023-05-31T10:19:19.978Z,32.63
2023-05-31T10:20:20.078Z,32.63
2023-05-31T10:21:20.100Z,32.56
2023-05-31T10:22:20.107Z,32.63
2023-05-31T10:23:20.190Z,32.67
2023-05-31T10:24:20.190Z,32.78
2023-05-31T10:25:20.189Z,30.88
2023-05-31T10:26:20.213Z,30.05
2023-05-31T10:27:20.214Z,29.38
2023-05-31T10:28:20.270Z,29.81
2023-05-31T10:29:20.301Z,29.51
2023-05-31T10:30:20.304Z,29.70
2023-05-31T10:31:20.414Z,30.27
2023-05-31T10:32:20.315Z,30.66
2023-05-31T10:33:20.374Z,30.93
2023-05-31T10:34:20.418Z,31.05
2023-05-31T10:35:20.472Z,31.14
2023-05-31T10:36:20.550Z,31.18
2023-05-31T10:37:20.565Z,31.33
2023-05-31T10:38:20.589Z,31.37
2023-05-31T10:39:20.603Z,31.46
2023-05-31T10:40:20.672Z,31.51
2023-05-31T10:41:25.800Z,31.55
2023-05-31T10:42:21.652Z,31.68
2023-05-31T10:43:20.634Z,31.73
2023-05-31T10:44:20.634Z,31.73
2023-05-31T10:45:20.638Z,31.73
2023-05-31T10:46:20.714Z,31.72
2023-05-31T10:47:20.607Z,31.76
2023-05-31T10:48:20.573Z,31.82
2023-05-31T10:49:20.640Z,31.80
2023-05-31T10:50:20.616Z,31.85
2023-05-31T10:51:20.612Z,31.94
2023-05-31T10:52:20.584Z,31.90
2023-05-31T10:53:20.606Z,31.95
2023-05-31T10:54:20.570Z,31.91
2023-05-31T10:55:20.576Z,31.95
2023-05-31T10:56:20.539Z,31.90
2023-05-31T10:57:20.546Z,31.93
2023-05-31T10:58:20.522Z,31.87
2023-05-31T10:59:20.529Z,31.78
2023-05-31T11:00:20.515Z,31.70
2023-05-31T11:01:20.584Z,31.69
2023-05-31T11:02:20.560Z,31.73
2023-05-31T11:03:20.803Z,31.80
2023-05-31T11:04:20.780Z,31.76
2023-05-31T11:05:20.750Z,31.76
2023-05-31T11:06:20.781Z,31.75
2023-05-31T11:07:20.866Z,31.65
2023-05-31T11:08:20.926Z,31.70
2023-05-31T11:09:20.977Z,31.70
2023-05-31T11:10:21.011Z,31.67
2023-05-31T11:11:21.100Z,31.73
2023-05-31T11:12:21.136Z,31.63
2023-05-31T11:13:23.202Z,31.61
2023-05-31T11:14:21.216Z,31.60
2023-05-31T11:15:21.230Z,31.59
2023-05-31T11:16:21.241Z,31.69
2023-05-31T11:17:21.240Z,31.56
2023-05-31T11:18:21.140Z,31.75
2023-05-31T11:19:21.134Z,31.77
2023-05-31T11:20:21.197Z,31.69
2023-05-31T11:21:21.205Z,31.70
2023-05-31T11:22:21.138Z,31.90
2023-05-31T11:23:21.154Z,31.40
2023-05-31T11:24:21.105Z,31.75
2023-05-31T11:25:23.307Z,31.54
2023-05-31T11:26:21.165Z,31.61
2023-05-31T11:27:21.093Z,31.44
2023-05-31T11:28:21.100Z,31.16
2023-05-31T11:29:21.107Z,31.25
2023-05-31T11:30:21.126Z,31.00
2023-05-31T11:31:22.778Z,30.76
2023-05-31T11:32:21.062Z,30.60
2023-05-31T11:33:21.069Z,30.76
2023-05-31T11:34:21.140Z,30.36
2023-05-31T11:35:21.086Z,30.46
2023-05-31T11:36:21.163Z,30.53
2023-05-31T11:37:23.910Z,30.51
2023-05-31T11:38:21.120Z,30.35
2023-05-31T11:39:21.112Z,30.39
2023-05-31T11:40:21.120Z,30.22
2023-05-31T11:41:21.096Z,30.13
2023-05-31T11:42:21.084Z,30.22
2023-05-31T11:43:21.145Z,29.86
2023-05-31T11:44:21.088Z,29.50
2023-05-31T11:45:21.100Z,29.41
2023-05-31T11:46:21.082Z,29.30
2023-05-31T11:47:22.034Z,29.39
2023-05-31T11:48:21.072Z,29.63
2023-05-31T11:49:21.093Z,29.66
2023-05-31T11:50:21.050Z,29.82
2023-05-31T11:51:21.032Z,29.66
2023-05-31T11:52:21.082Z,29.59
2023-05-31T11:53:21.023Z,29.61
2023-05-31T11:54:21.016Z,29.58
2023-05-31T11:55:20.996Z,29.57
2023-05-31T11:56:21.024Z,29.41
2023-05-31T11:57:20.996Z,29.54
2023-05-31T11:58:20.999Z,29.45
2023-05-31T11:59:20.997Z,29.44
2023-05-31T12:00:20.944Z,29.47
2023-05-31T12:01:20.965Z,29.42
2023-05-31T12:02:21.046Z,29.35
2023-05-31T12:03:21.080Z,29.51
2023-05-31T12:04:20.967Z,29.56
2023-05-31T12:05:20.948Z,29.44
2023-05-31T12:06:22.846Z,29.41
2023-05-31T12:07:20.933Z,29.51
2023-05-31T12:08:20.913Z,29.53
2023-05-31T12:09:20.978Z,29.52
2023-05-31T12:10:20.917Z,29.52
2023-05-31T12:11:20.876Z,29.43
2023-05-31T12:12:20.953Z,29.45
2023-05-31T12:13:20.917Z,29.26
2023-05-31T12:14:20.917Z,29.30
2023-05-31T12:15:20.838Z,29.22
2023-05-31T12:16:20.873Z,29.10
2023-05-31T12:17:20.939Z,29.12
2023-05-31T12:18:20.853Z,29.12
2023-05-31T12:19:20.841Z,29.14
2023-05-31T12:20:20.831Z,29.17
2023-05-31T12:21:20.844Z,29.19
2023-05-31T12:22:20.785Z,29.06
2023-05-31T12:23:20.809Z,29.32
2023-05-31T12:24:20.822Z,29.23
2023-05-31T12:25:20.817Z,29.09
2023-05-31T12:26:20.766Z,29.09
2023-05-31T12:27:22.666Z,29.29
2023-05-31T12:28:21.765Z,29.47
2023-05-31T12:29:20.788Z,29.46
2023-05-31T12:30:20.824Z,29.42
2023-05-31T12:31:20.762Z,29.55
2023-05-31T12:32:20.769Z,29.59
2023-05-31T12:33:20.751Z,29.62
2023-05-31T12:34:20.751Z,29.65
2023-05-31T12:35:20.750Z,29.58
2023-05-31T12:36:20.748Z,29.59
2023-05-31T12:37:20.751Z,29.78
2023-05-31T12:38:20.691Z,29.72
2023-05-31T12:39:20.704Z,29.69
2023-05-31T12:40:22.902Z,29.71
2023-05-31T12:41:20.681Z,29.65
2023-05-31T12:42:21.889Z,29.71
2023-05-31T12:43:20.718Z,29.61
2023-05-31T12:44:20.683Z,29.57
2023-05-31T12:45:20.675Z,29.55
2023-05-31T12:46:20.700Z,29.49
2023-05-31T12:47:20.633Z,29.50
2023-05-31T12:48:20.798Z,29.44
2023-05-31T12:49:20.647Z,29.31
2023-05-31T12:50:20.649Z,29.37
2023-05-31T12:51:20.626Z,29.36
2023-05-31T12:52:20.588Z,29.28